Pct Moose — CGCZ — position and weather

sailwx.info

Track history (hours):
 
Tides and Currents Weather Stations Pressure Air Temp Water Temp Dewpoint Dewpoint Depression Visibility Wind Speed Wind Dir Waves Ship Positions

Pct Moose

Last reported at 2015-Aug-27 18:09 UTC. Time now 2015-Sep-04 07:49 UTC.
Position N 48°26' W 123°26'.

Length 33 m; draft 5 m.

Type: Military. MMSI: 316013412.

Date/timePositionNaut miles runAvg speedWind from/ knotsBaromVisibWave heightAir tempDewpointWater temp
2015-Aug-27 18:09N 48°26' W 123°26'4 7.1
2015-Aug-27 17:32N 48°22' W 123°28'7 6.7
2015-Aug-27 16:33N 48°18' W 123°20'7 7.1
2015-Aug-27 15:33N 48°23' W 123°12'1817.9
2015-Aug-27 14:33N 48°41' W 123°16'4 0.8
2015-Aug-27 09:24N 48°45' W 123°14'0 0.0
2015-Aug-27 00:09N 48°45' W 123°14'2 3.9
2015-Aug-26 23:31N 48°45' W 123°17'1010.7
2015-Aug-26 22:33N 48°55' W 123°18'8 8.4
2015-Aug-26 21:33N 49°01' W 123°28'8 8.1
2015-Aug-26 20:33N 49°09' W 123°26'7 7.4
2015-Aug-26 19:34N 49°16' W 123°25'9 8.6
2015-Aug-26 18:33N 49°20' W 123°13'4 3.8
2015-Aug-26 17:33N 49°19' W 123°08'1 1.2
2015-Aug-26 16:33N 49°18' W 123°07'0 0.3
2015-Aug-26 15:33N 49°17' W 123°07'0 0.0
2015-Aug-26 14:32N 49°17' W 123°07'0 0.0
2015-Aug-26 13:32N 49°17' W 123°07'0 0.0
2015-Aug-26 12:32N 49°17' W 123°07'0 0.0
2015-Aug-26 11:31N 49°17' W 123°07'0 0.0
2015-Aug-26 10:31N 49°17' W 123°07'0 0.0
2015-Aug-26 09:33N 49°17' W 123°07'0 0.0
2015-Aug-26 08:33N 49°17' W 123°07'0 0.0
2015-Aug-26 07:33N 49°17' W 123°07'0 0.0
2015-Aug-26 06:32N 49°17' W 123°07'0 0.0
2015-Aug-26 05:32N 49°17' W 123°07'0 0.0
2015-Aug-26 04:32N 49°17' W 123°07'0 0.0
2015-Aug-26 03:31N 49°17' W 123°07'0 0.0
2015-Aug-26 02:31N 49°17' W 123°07'0 0.0
2015-Aug-26 01:33N 49°17' W 123°07'0 0.0
2015-Aug-26 00:33N 49°17' W 123°07'0 0.0
2015-Aug-25 23:33N 49°17' W 123°07'2 2.3
2015-Aug-25 22:33N 49°19' W 123°10'1111.4
2015-Aug-25 21:33N 49°20' W 123°27'8 7.8
2015-Aug-25 20:33N 49°23' W 123°38'9 8.8
2015-Aug-25 19:33N 49°15' W 123°34'1110.7
2015-Aug-25 18:34N 49°04' W 123°32'9 9.0
2015-Aug-25 17:34N 48°57' W 123°23'9 8.7
2015-Aug-25 16:33N 48°53' W 123°12'8 7.6
2015-Aug-25 15:32N 48°49' W 123°02'9 9.5
2015-Aug-25 14:33N 48°44' W 123°13'1 0.9
2015-Aug-25 13:30N 48°45' W 123°14'0 0.0
2015-Aug-25 12:18N 48°45' W 123°14'0 0.0
2015-Aug-25 10:18N 48°45' W 123°14'0 0.0
2015-Aug-25 09:27N 48°45' W 123°14'0 0.0
2015-Aug-25 05:08N 48°45' W 123°14'0 0.0
2015-Aug-25 04:17N 48°45' W 123°14'0 0.0
2015-Aug-25 02:20N 48°45' W 123°14'4 5.1
2015-Aug-25 01:33N 48°41' W 123°15'1615.7
2015-Aug-25 00:33N 48°26' W 123°06'9 8.7
2015-Aug-24 23:33N 48°21' W 123°16'1 1.2
2015-Aug-24 22:30N 48°21' W 123°14'1 0.9
2015-Aug-24 21:33N 48°21' W 123°13'2 2.3
2015-Aug-24 20:33N 48°21' W 123°16'8 7.8
2015-Aug-24 19:32N 48°23' W 123°04'5 4.8
2015-Aug-24 18:33N 48°21' W 123°11'8 8.4
2015-Aug-24 17:34N 48°18' W 123°22'9 8.9
2015-Aug-24 16:33N 48°26' W 123°26'0 0.1
2015-Aug-24 14:27N 48°26' W 123°26'0 0.0
2015-Aug-23 20:22N 48°26' W 123°26'0 0.0
2015-Aug-23 19:25N 48°26' W 123°26'0 0.0
2015-Aug-23 18:31N 48°26' W 123°26'0 0.0
2015-Aug-23 17:31N 48°26' W 123°26'0 0.0
2015-Aug-23 16:25N 48°26' W 123°26'0 0.0
2015-Aug-23 15:22N 48°26' W 123°26'0 0.0
2015-Aug-23 14:27N 48°26' W 123°26'0 0.0
2015-Aug-23 13:29N 48°26' W 123°26'0 0.0
2015-Aug-23 12:11N 48°26' W 123°26'0 0.0
2015-Aug-23 11:24N 48°26' W 123°26'0 0.0
2015-Aug-23 10:30N 48°26' W 123°26'0 0.0
2015-Aug-23 01:26N 48°26' W 123°26'0 0.0
2015-Aug-22 23:14N 48°26' W 123°26'0 0.0
2015-Aug-22 22:05N 48°26' W 123°26'0 0.1
2015-Aug-22 21:29N 48°26' W 123°26'0 0.0
2015-Aug-22 20:17N 48°26' W 123°26'0 0.0
2015-Aug-22 19:22N 48°26' W 123°26'0 0.0
2015-Aug-22 18:28N 48°26' W 123°26'0 0.0
2015-Aug-22 17:28N 48°26' W 123°26'0 0.0
2015-Aug-22 16:28N 48°26' W 123°26'0 0.0
2015-Aug-22 15:33N 48°26' W 123°26'0 0.0
2015-Aug-22 14:33N 48°26' W 123°26'0 0.0
2015-Aug-22 13:33N 48°26' W 123°26'0 0.0
2015-Aug-22 12:27N 48°26' W 123°26'0 0.0
2015-Aug-22 11:33N 48°26' W 123°26'0 0.0
2015-Aug-22 10:21N 48°26' W 123°26'0 0.0
2015-Aug-22 09:21N 48°26' W 123°26'0 0.0
2015-Aug-22 08:27N 48°26' W 123°26'0 0.0
2015-Aug-22 07:30N 48°26' W 123°26'0 0.0
2015-Aug-22 06:33N 48°26' W 123°26'0 0.0
2015-Aug-21 21:25N 48°26' W 123°26'1 0.4
2015-Aug-21 19:20N 48°26' W 123°27'1 0.4
2015-Aug-21 17:19N 48°26' W 123°26'0 0.0
2015-Aug-21 16:33N 48°26' W 123°26'0 0.2
2015-Aug-21 15:32N 48°26' W 123°26'7 0.5
2015-Aug-21 03:12N 48°21' W 123°32'4 6.0
2015-Aug-21 02:33N 48°24' W 123°29'1 1.2
2015-Aug-21 01:33N 48°24' W 123°27'9 9.4
2015-Aug-21 00:34N 48°25' W 123°13'1413.9
2015-Aug-20 23:33N 48°39' W 123°15'1312.9
2015-Aug-20 22:34N 48°48' W 123°01'10 9.5
2015-Aug-20 21:34N 48°53' W 123°13'3 2.5
2015-Aug-20 20:33N 48°52' W 123°09'3 3.4
2015-Aug-20 19:34N 48°54' W 123°13'1010.0
2015-Aug-20 18:33N 49°01' W 123°24'9 9.1
2015-Aug-20 17:33N 49°08' W 123°33'9 8.8
2015-Aug-20 16:33N 49°11' W 123°46'4 3.9
2015-Aug-20 15:34N 49°13' W 123°51'4 3.1
2015-Aug-20 14:17N 49°10' W 123°56'0 0.0
2015-Aug-20 12:07N 49°10' W 123°56'0 0.0
2015-Aug-20 11:31N 49°10' W 123°56'0 0.0
2015-Aug-20 10:31N 49°10' W 123°56'0 0.0
2015-Aug-20 09:32N 49°10' W 123°56'0 0.0
2015-Aug-20 08:32N 49°10' W 123°56'0 0.0
2015-Aug-20 07:32N 49°10' W 123°56'0 0.0
2015-Aug-20 06:32N 49°10' W 123°56'0 0.0
2015-Aug-20 05:32N 49°10' W 123°56'0 0.0
2015-Aug-20 04:31N 49°10' W 123°56'0 0.0
2015-Aug-20 03:30N 49°10' W 123°56'0 0.0
2015-Aug-20 02:33N 49°10' W 123°56'0 0.0
2015-Aug-20 01:33N 49°10' W 123°56'2 1.7
2015-Aug-20 00:33N 49°11' W 123°54'2 2.5
2015-Aug-19 23:34N 49°14' W 123°55'7 7.3
2015-Aug-19 22:33N 49°21' W 123°54'4 4.2
2015-Aug-19 21:33N 49°17' W 123°52'5 4.8
2015-Aug-19 20:33N 49°18' W 123°45'10 0.5
2015-Aug-18 23:31N 49°10' W 123°55'1212.7
2015-Aug-18 22:33N 49°14' W 123°37'7 7.4
2015-Aug-18 21:34N 49°07' W 123°33'2 1.7
2015-Aug-18 20:33N 49°06' W 123°35'7 6.9
2015-Aug-18 19:32N 49°00' W 123°29'7 7.0
2015-Aug-18 18:34N 48°56' W 123°20'6 6.2
2015-Aug-18 17:33N 48°53' W 123°12'6 6.0
2015-Aug-18 16:34N 48°49' W 123°05'6 6.2
2015-Aug-18 15:33N 48°44' W 123°08'4 1.0
2015-Aug-18 11:12N 48°45' W 123°14'0 0.0
2015-Aug-18 09:29N 48°45' W 123°14'0 0.0
2015-Aug-18 08:31N 48°45' W 123°14'0 0.0
2015-Aug-18 07:26N 48°45' W 123°14'0 0.0
2015-Aug-18 03:31N 48°45' W 123°14'1 1.1
2015-Aug-18 02:33N 48°44' W 123°13'1212.0
2015-Aug-18 01:33N 48°32' W 123°11'1211.7
2015-Aug-18 00:32N 48°20' W 123°12'7 7.0
2015-Aug-17 23:33N 48°17' W 123°21'8 7.6
2015-Aug-17 22:33N 48°21' W 123°11'1 0.6
2015-Aug-17 21:33N 48°21' W 123°10'9 9.1
2015-Aug-17 20:33N 48°16' W 123°22'3 3.5
2015-Aug-17 19:33N 48°18' W 123°18'4 3.7
2015-Aug-17 18:33N 48°20' W 123°23'  
Track history (hours):
 
Tides and Currents Weather Stations Pressure Air Temp Water Temp Dewpoint Dewpoint Depression Visibility Wind Speed Wind Dir Waves Ship Positions

Pct Moose

Last reported at 2015-Aug-27 18:09 UTC. Time now 2015-Sep-04 07:49 UTC.
Position N 48°26' W 123°26'.

Length 33 m; draft 5 m.

Type: Military. MMSI: 316013412.

Date/timePositionNaut miles runAvg speedWind from/ knotsBaromVisibWave heightAir tempDewpointWater temp
2015-Aug-27 18:09N 48°26' W 123°26'4 7.1
2015-Aug-27 17:32N 48°22' W 123°28'7 6.7
2015-Aug-27 16:33N 48°18' W 123°20'7 7.1
2015-Aug-27 15:33N 48°23' W 123°12'1817.9
2015-Aug-27 14:33N 48°41' W 123°16'4 0.8
2015-Aug-27 09:24N 48°45' W 123°14'0 0.0
2015-Aug-27 00:09N 48°45' W 123°14'2 3.9
2015-Aug-26 23:31N 48°45' W 123°17'1010.7
2015-Aug-26 22:33N 48°55' W 123°18'8 8.4
2015-Aug-26 21:33N 49°01' W 123°28'8 8.1
2015-Aug-26 20:33N 49°09' W 123°26'7 7.4
2015-Aug-26 19:34N 49°16' W 123°25'9 8.6
2015-Aug-26 18:33N 49°20' W 123°13'4 3.8
2015-Aug-26 17:33N 49°19' W 123°08'1 1.2
2015-Aug-26 16:33N 49°18' W 123°07'0 0.3
2015-Aug-26 15:33N 49°17' W 123°07'0 0.0
2015-Aug-26 14:32N 49°17' W 123°07'0 0.0
2015-Aug-26 13:32N 49°17' W 123°07'0 0.0
2015-Aug-26 12:32N 49°17' W 123°07'0 0.0
2015-Aug-26 11:31N 49°17' W 123°07'0 0.0
2015-Aug-26 10:31N 49°17' W 123°07'0 0.0
2015-Aug-26 09:33N 49°17' W 123°07'0 0.0
2015-Aug-26 08:33N 49°17' W 123°07'0 0.0
2015-Aug-26 07:33N 49°17' W 123°07'0 0.0
2015-Aug-26 06:32N 49°17' W 123°07'0 0.0
2015-Aug-26 05:32N 49°17' W 123°07'0 0.0
2015-Aug-26 04:32N 49°17' W 123°07'0 0.0
2015-Aug-26 03:31N 49°17' W 123°07'0 0.0
2015-Aug-26 02:31N 49°17' W 123°07'0 0.0
2015-Aug-26 01:33N 49°17' W 123°07'0 0.0
2015-Aug-26 00:33N 49°17' W 123°07'0 0.0
2015-Aug-25 23:33N 49°17' W 123°07'2 2.3
2015-Aug-25 22:33N 49°19' W 123°10'1111.4
2015-Aug-25 21:33N 49°20' W 123°27'8 7.8
2015-Aug-25 20:33N 49°23' W 123°38'9 8.8
2015-Aug-25 19:33N 49°15' W 123°34'1110.7
2015-Aug-25 18:34N 49°04' W 123°32'9 9.0
2015-Aug-25 17:34N 48°57' W 123°23'9 8.7
2015-Aug-25 16:33N 48°53' W 123°12'8 7.6
2015-Aug-25 15:32N 48°49' W 123°02'9 9.5
2015-Aug-25 14:33N 48°44' W 123°13'1 0.9
2015-Aug-25 13:30N 48°45' W 123°14'0 0.0
2015-Aug-25 12:18N 48°45' W 123°14'0 0.0
2015-Aug-25 10:18N 48°45' W 123°14'0 0.0
2015-Aug-25 09:27N 48°45' W 123°14'0 0.0
2015-Aug-25 05:08N 48°45' W 123°14'0 0.0
2015-Aug-25 04:17N 48°45' W 123°14'0 0.0
2015-Aug-25 02:20N 48°45' W 123°14'4 5.1
2015-Aug-25 01:33N 48°41' W 123°15'1615.7
2015-Aug-25 00:33N 48°26' W 123°06'9 8.7
2015-Aug-24 23:33N 48°21' W 123°16'1 1.2
2015-Aug-24 22:30N 48°21' W 123°14'1 0.9
2015-Aug-24 21:33N 48°21' W 123°13'2 2.3
2015-Aug-24 20:33N 48°21' W 123°16'8 7.8
2015-Aug-24 19:32N 48°23' W 123°04'5 4.8
2015-Aug-24 18:33N 48°21' W 123°11'8 8.4
2015-Aug-24 17:34N 48°18' W 123°22'9 8.9
2015-Aug-24 16:33N 48°26' W 123°26'0 0.1
2015-Aug-24 14:27N 48°26' W 123°26'0 0.0
2015-Aug-23 20:22N 48°26' W 123°26'0 0.0
2015-Aug-23 19:25N 48°26' W 123°26'0 0.0
2015-Aug-23 18:31N 48°26' W 123°26'0 0.0
2015-Aug-23 17:31N 48°26' W 123°26'0 0.0
2015-Aug-23 16:25N 48°26' W 123°26'0 0.0
2015-Aug-23 15:22N 48°26' W 123°26'0 0.0
2015-Aug-23 14:27N 48°26' W 123°26'0 0.0
2015-Aug-23 13:29N 48°26' W 123°26'0 0.0
2015-Aug-23 12:11N 48°26' W 123°26'0 0.0
2015-Aug-23 11:24N 48°26' W 123°26'0 0.0
2015-Aug-23 10:30N 48°26' W 123°26'0 0.0
2015-Aug-23 01:26N 48°26' W 123°26'0 0.0
2015-Aug-22 23:14N 48°26' W 123°26'0 0.0
2015-Aug-22 22:05N 48°26' W 123°26'0 0.1
2015-Aug-22 21:29N 48°26' W 123°26'0 0.0
2015-Aug-22 20:17N 48°26' W 123°26'0 0.0
2015-Aug-22 19:22N 48°26' W 123°26'0 0.0
2015-Aug-22 18:28N 48°26' W 123°26'0 0.0
2015-Aug-22 17:28N 48°26' W 123°26'0 0.0
2015-Aug-22 16:28N 48°26' W 123°26'0 0.0
2015-Aug-22 15:33N 48°26' W 123°26'0 0.0
2015-Aug-22 14:33N 48°26' W 123°26'0 0.0
2015-Aug-22 13:33N 48°26' W 123°26'0 0.0
2015-Aug-22 12:27N 48°26' W 123°26'0 0.0
2015-Aug-22 11:33N 48°26' W 123°26'0 0.0
2015-Aug-22 10:21N 48°26' W 123°26'0 0.0
2015-Aug-22 09:21N 48°26' W 123°26'0 0.0
2015-Aug-22 08:27N 48°26' W 123°26'0 0.0
2015-Aug-22 07:30N 48°26' W 123°26'0 0.0
2015-Aug-22 06:33N 48°26' W 123°26'0 0.0
2015-Aug-21 21:25N 48°26' W 123°26'1 0.4
2015-Aug-21 19:20N 48°26' W 123°27'1 0.4
2015-Aug-21 17:19N 48°26' W 123°26'0 0.0
2015-Aug-21 16:33N 48°26' W 123°26'0 0.2
2015-Aug-21 15:32N 48°26' W 123°26'7 0.5
2015-Aug-21 03:12N 48°21' W 123°32'4 6.0
2015-Aug-21 02:33N 48°24' W 123°29'1 1.2
2015-Aug-21 01:33N 48°24' W 123°27'9 9.4
2015-Aug-21 00:34N 48°25' W 123°13'1413.9
2015-Aug-20 23:33N 48°39' W 123°15'1312.9
2015-Aug-20 22:34N 48°48' W 123°01'10 9.5
2015-Aug-20 21:34N 48°53' W 123°13'3 2.5
2015-Aug-20 20:33N 48°52' W 123°09'3 3.4
2015-Aug-20 19:34N 48°54' W 123°13'1010.0
2015-Aug-20 18:33N 49°01' W 123°24'9 9.1
2015-Aug-20 17:33N 49°08' W 123°33'9 8.8
2015-Aug-20 16:33N 49°11' W 123°46'4 3.9
2015-Aug-20 15:34N 49°13' W 123°51'4 3.1
2015-Aug-20 14:17N 49°10' W 123°56'0 0.0
2015-Aug-20 12:07N 49°10' W 123°56'0 0.0
2015-Aug-20 11:31N 49°10' W 123°56'0 0.0
2015-Aug-20 10:31N 49°10' W 123°56'0 0.0
2015-Aug-20 09:32N 49°10' W 123°56'0 0.0
2015-Aug-20 08:32N 49°10' W 123°56'0 0.0
2015-Aug-20 07:32N 49°10' W 123°56'0 0.0
2015-Aug-20 06:32N 49°10' W 123°56'0 0.0
2015-Aug-20 05:32N 49°10' W 123°56'0 0.0
2015-Aug-20 04:31N 49°10' W 123°56'0 0.0
2015-Aug-20 03:30N 49°10' W 123°56'0 0.0
2015-Aug-20 02:33N 49°10' W 123°56'0 0.0
2015-Aug-20 01:33N 49°10' W 123°56'2 1.7
2015-Aug-20 00:33N 49°11' W 123°54'2 2.5
2015-Aug-19 23:34N 49°14' W 123°55'7 7.3
2015-Aug-19 22:33N 49°21' W 123°54'4 4.2
2015-Aug-19 21:33N 49°17' W 123°52'5 4.8
2015-Aug-19 20:33N 49°18' W 123°45'10 0.5
2015-Aug-18 23:31N 49°10' W 123°55'1212.7
2015-Aug-18 22:33N 49°14' W 123°37'7 7.4
2015-Aug-18 21:34N 49°07' W 123°33'2 1.7
2015-Aug-18 20:33N 49°06' W 123°35'7 6.9
2015-Aug-18 19:32N 49°00' W 123°29'7 7.0
2015-Aug-18 18:34N 48°56' W 123°20'6 6.2
2015-Aug-18 17:33N 48°53' W 123°12'6 6.0
2015-Aug-18 16:34N 48°49' W 123°05'6 6.2
2015-Aug-18 15:33N 48°44' W 123°08'4 1.0
2015-Aug-18 11:12N 48°45' W 123°14'0 0.0
2015-Aug-18 09:29N 48°45' W 123°14'0 0.0
2015-Aug-18 08:31N 48°45' W 123°14'0 0.0
2015-Aug-18 07:26N 48°45' W 123°14'0 0.0
2015-Aug-18 03:31N 48°45' W 123°14'1 1.1
2015-Aug-18 02:33N 48°44' W 123°13'1212.0
2015-Aug-18 01:33N 48°32' W 123°11'1211.7
2015-Aug-18 00:32N 48°20' W 123°12'7 7.0
2015-Aug-17 23:33N 48°17' W 123°21'8 7.6
2015-Aug-17 22:33N 48°21' W 123°11'1 0.6
2015-Aug-17 21:33N 48°21' W 123°10'9 9.1
2015-Aug-17 20:33N 48°16' W 123°22'3 3.5
2015-Aug-17 19:33N 48°18' W 123°18'4 3.7
2015-Aug-17 18:33N 48°20' W 123°23'  

Dump ship's entire track history